Time;durP1;ratioP1;P1;durP2;ratioP2;P2;SDS_P1;SDS_P2;PMS_P1;PMS_P2;Temp;Humidity;BMP_temperature;BMP_pressure;BME280_temperature;BME280_humidity;BME280_pressure;Samples;Min_cycle;Max_cycle;Signal;HPM_P1;HPM_P2
2021/08/10 00:02:08;;;;;;;3.23;1.90;;;;;;;12.48;96.13;95885.22;5020398;28;20220;-73
2021/08/10 00:04:37;;;;;;;1.97;1.37;;;;;;;12.53;95.90;95892.59;5023983;28;20653;-72
2021/08/10 00:07:05;;;;;;;2.13;2.03;;;;;;;12.55;95.80;95885.28;5020287;28;20562;-73
2021/08/10 00:09:33;;;;;;;1.07;1.00;;;;;;;12.57;95.82;95891.22;5025864;28;20247;-74
2021/08/10 00:12:01;;;;;;;2.50;2.13;;;;;;;12.60;96.02;95893.47;5022903;28;20733;-73
2021/08/10 00:14:29;;;;;;;1.63;1.53;;;;;;;12.50;96.17;95895.63;5023361;28;20203;-73
2021/08/10 00:16:57;;;;;;;2.10;1.70;;;;;;;12.46;96.40;95891.72;5019857;28;20227;-73
2021/08/10 00:19:26;;;;;;;1.53;1.43;;;;;;;12.47;96.43;95894.19;5020919;28;20211;-72
2021/08/10 00:21:55;;;;;;;3.27;1.57;;;;;;;12.54;96.48;95891.59;5029510;28;20231;-72
2021/08/10 00:24:23;;;;;;;1.73;1.23;;;;;;;12.56;96.44;95892.22;5027693;28;20229;-72
2021/08/10 00:26:50;;;;;;;1.10;1.03;;;;;;;12.60;96.50;95888.16;5026437;28;20232;-72
2021/08/10 00:29:18;;;;;;;1.23;1.20;;;;;;;12.54;96.68;95888.94;5028381;28;20633;-72
2021/08/10 00:31:46;;;;;;;2.37;2.23;;;;;;;12.51;96.74;95878.72;5027952;28;20223;-73
2021/08/10 00:34:14;;;;;;;1.50;1.40;;;;;;;12.50;96.77;95885.03;5018969;28;20269;-72
2021/08/10 00:36:44;;;;;;;1.60;1.33;;;;;;;12.49;96.83;95886.03;5021220;28;20239;-73
2021/08/10 00:39:12;;;;;;;2.60;1.23;;;;;;;12.49;97.05;95883.41;5017402;28;20224;-73
2021/08/10 00:41:41;;;;;;;1.63;1.53;;;;;;;12.48;97.32;95877.28;5029946;28;20853;-73
2021/08/10 00:44:10;;;;;;;2.40;1.70;;;;;;;12.48;97.39;95879.94;5021502;28;20238;-72
2021/08/10 00:46:40;;;;;;;1.90;1.80;;;;;;;12.49;97.54;95875.44;5027091;28;20269;-73
2021/08/10 00:49:08;;;;;;;2.00;1.40;;;;;;;12.50;97.53;95869.16;5028666;28;20249;-72
2021/08/10 00:51:38;;;;;;;1.40;1.30;;;;;;;12.51;97.56;95873.44;5029203;28;20227;-73
2021/08/10 00:54:12;;;;;;;1.60;1.20;;;;;;;12.51;97.52;95878.72;5022055;28;20292;-72
2021/08/10 00:56:47;;;;;;;1.07;1.03;;;;;;;12.52;97.69;95877.72;5024676;28;20223;-73
2021/08/10 00:59:20;;;;;;;1.30;1.20;;;;;;;12.52;97.64;95875.06;5024076;28;20242;-73
2021/08/10 01:01:55;;;;;;;3.47;2.53;;;;;;;12.52;97.56;95883.00;4999730;28;20227;-72
2021/08/10 01:04:24;;;;;;;1.10;1.07;;;;;;;12.51;97.54;95873.44;5026985;28;20281;-72
2021/08/10 01:07:05;;;;;;;1.67;1.57;;;;;;;12.53;97.82;95879.38;5021206;28;20223;-72
2021/08/10 01:09:46;;;;;;;1.30;1.20;;;;;;;12.56;97.55;95871.03;5004230;28;20746;-72
2021/08/10 01:12:17;;;;;;;1.20;1.17;;;;;;;12.60;97.58;95867.00;5028102;28;22463;-73
2021/08/10 01:14:52;;;;;;;1.57;1.47;;;;;;;12.64;97.46;95870.91;5022453;28;20227;-72
2021/08/10 01:17:25;;;;;;;2.50;1.57;;;;;;;12.68;97.39;95869.50;5002241;28;20230;-73
2021/08/10 01:20:45;;;;;;;2.30;1.40;;;;;;;12.66;97.03;95868.88;5008885;28;20760;-73
2021/08/10 01:23:16;;;;;;;0.97;0.97;;;;;;;12.70;97.25;95867.47;4977902;28;20244;-72
2021/08/10 01:25:58;;;;;;;2.20;1.67;;;;;;;12.74;97.34;95862.63;5029157;28;20785;-72
2021/08/10 01:28:42;;;;;;;2.30;1.30;;;;;;;12.75;97.20;95864.28;5012817;28;20227;-73
2021/08/10 01:31:23;;;;;;;1.50;1.40;;;;;;;12.75;96.95;95864.28;5031174;28;20295;-73
2021/08/10 01:34:01;;;;;;;4.50;1.73;;;;;;;12.69;96.88;95865.84;5003377;28;20654;-72
2021/08/10 01:36:34;;;;;;;1.80;1.50;;;;;;;12.67;96.73;95862.56;5021531;28;20229;-72
2021/08/10 01:39:03;;;;;;;1.60;1.50;;;;;;;12.67;96.72;95861.75;5021440;28;20514;-72
2021/08/10 01:41:39;;;;;;;1.30;1.20;;;;;;;12.65;96.83;95858.50;5028192;28;20448;-72
2021/08/10 01:44:09;;;;;;;1.37;1.03;;;;;;;12.65;97.07;95854.00;5036443;28;20218;-72
2021/08/10 01:46:41;;;;;;;2.27;1.60;;;;;;;12.65;96.99;95858.50;5023956;28;20222;-72
2021/08/10 01:49:12;;;;;;;1.27;1.17;;;;;;;12.66;97.23;95850.34;5035308;28;20220;-71
2021/08/10 01:51:42;;;;;;;4.97;1.63;;;;;;;12.71;97.17;95858.56;5033139;28;20249;-71
2021/08/10 01:54:12;;;;;;;1.83;1.73;;;;;;;12.69;97.15;95855.25;5023816;28;20224;-72
2021/08/10 01:56:43;;;;;;;1.40;1.30;;;;;;;12.67;97.12;95851.97;5024690;28;20223;-72
2021/08/10 01:59:14;;;;;;;1.20;1.10;;;;;;;12.65;97.21;95859.31;5035082;28;20219;-73
2021/08/10 02:01:45;;;;;;;2.60;1.33;;;;;;;12.60;97.08;95848.47;5031189;28;20219;-73
2021/08/10 02:04:19;;;;;;;1.70;1.60;;;;;;;12.53;96.56;95842.31;5015126;28;20277;-72
2021/08/10 02:06:52;;;;;;;1.97;1.37;;;;;;;12.47;96.50;95846.53;5028045;28;20444;-72
2021/08/10 02:09:23;;;;;;;1.33;1.23;;;;;;;12.37;96.68;95850.50;5027964;28;20216;-72
2021/08/10 02:11:54;;;;;;;2.67;1.43;;;;;;;12.34;96.52;95856.16;5020754;28;20602;-73
2021/08/10 02:14:27;;;;;;;1.73;1.63;;;;;;;12.27;96.59;95861.41;5030259;28;20224;-72
2021/08/10 02:17:06;;;;;;;1.30;1.20;;;;;;;12.24;96.75;95857.31;5001346;28;20228;-72
2021/08/10 02:19:40;;;;;;;2.20;1.00;;;;;;;12.21;96.97;95844.47;5004469;28;20226;-72
2021/08/10 02:22:10;;;;;;;1.53;1.43;;;;;;;12.20;97.17;95842.81;5004261;28;20254;-72
2021/08/10 02:24:47;;;;;;;1.67;1.57;;;;;;;12.19;97.51;95849.13;5004176;28;20355;-72
2021/08/10 02:27:20;;;;;;;1.13;1.03;;;;;;;12.16;97.66;95849.53;5004156;28;20232;-72
2021/08/10 02:29:52;;;;;;;1.23;1.13;;;;;;;12.16;97.64;95849.53;5018463;28;20313;-73
2021/08/10 02:32:29;;;;;;;2.10;1.93;;;;;;;12.16;97.86;95846.88;5024361;28;20250;-73
2021/08/10 02:35:00;;;;;;;1.10;1.10;;;;;;;12.13;97.87;95834.00;5027021;28;20223;-72
2021/08/10 02:37:32;;;;;;;2.70;1.70;;;;;;;12.15;98.08;95836.47;5028727;28;20298;-72
2021/08/10 02:40:08;;;;;;;1.60;1.50;;;;;;;12.13;98.24;95834.00;5026164;28;20233;-73
2021/08/10 02:42:39;;;;;;;1.53;1.30;;;;;;;12.14;98.13;95830.34;5031052;28;20235;-72
2021/08/10 02:45:08;;;;;;;1.60;1.50;;;;;;;12.13;97.78;95826.06;5030599;28;20287;-72
2021/08/10 02:47:37;;;;;;;1.20;1.20;;;;;;;12.12;97.94;95816.50;5018978;28;20720;-72
2021/08/10 02:50:06;;;;;;;1.73;1.63;;;;;;;12.13;98.11;95826.06;5028035;28;20222;-72
2021/08/10 02:52:34;;;;;;;2.70;1.20;;;;;;;12.12;97.94;95826.25;5029574;28;20342;-73
2021/08/10 02:55:02;;;;;;;1.10;1.10;;;;;;;12.11;97.66;95830.75;5035635;28;20224;-72
2021/08/10 02:57:37;;;;;;;2.63;1.87;;;;;;;12.12;97.77;95824.44;5031056;28;20228;-72
2021/08/10 03:00:09;;;;;;;3.40;2.23;;;;;;;12.07;97.86;95829.50;5020645;28;20215;-72
2021/08/10 03:02:49;;;;;;;1.80;1.70;;;;;;;12.06;97.74;95833.13;5021791;28;20228;-72
2021/08/10 03:05:23;;;;;;;3.17;2.97;;;;;;;11.92;97.52;95836.66;5018948;28;20302;-72
2021/08/10 03:07:55;;;;;;;2.07;1.93;;;;;;;11.80;97.93;95843.44;5017790;28;20613;-72
2021/08/10 03:10:26;;;;;;;2.07;1.47;;;;;;;11.83;97.78;95838.59;5009194;28;20224;-72
2021/08/10 03:12:57;;;;;;;2.30;0.80;;;;;;;11.81;97.22;95847.72;5030684;28;20223;-72
2021/08/10 03:15:28;;;;;;;0.57;0.43;;;;;;;11.72;96.84;95840.88;5029113;28;20231;-73
2021/08/10 03:18:03;;;;;;;0.60;0.60;;;;;;;11.68;97.33;95843.88;5015164;28;20234;-73
2021/08/10 03:20:32;;;;;;;0.60;0.60;;;;;;;11.68;97.93;95840.41;5009339;28;20231;-72
2021/08/10 03:23:01;;;;;;;0.87;0.63;;;;;;;11.69;98.14;95842.88;5016852;28;20778;-72
2021/08/10 03:25:31;;;;;;;1.07;1.07;;;;;;;11.69;98.38;95842.88;5021823;28;20224;-72
2021/08/10 03:28:01;;;;;;;1.63;1.33;;;;;;;11.71;98.56;95836.59;5029504;28;20239;-73
2021/08/10 03:30:31;;;;;;;1.03;1.03;;;;;;;11.74;98.07;95844.97;5035902;28;20227;-73
2021/08/10 03:33:02;;;;;;;1.13;1.07;;;;;;;11.73;98.03;95842.50;5017871;28;20226;-72
2021/08/10 03:35:30;;;;;;;0.90;0.90;;;;;;;11.67;97.73;95839.59;5024035;28;20278;-72
2021/08/10 03:37:59;;;;;;;4.03;1.00;;;;;;;11.64;97.94;95839.16;5023695;28;20231;-72
2021/08/10 03:40:28;;;;;;;1.37;1.27;;;;;;;11.60;98.43;95836.06;5022586;28;20258;-72
2021/08/10 03:42:58;;;;;;;11.47;1.27;;;;;;;11.60;98.72;95841.34;5020433;28;20235;-72
2021/08/10 03:45:30;;;;;;;1.53;1.43;;;;;;;11.64;98.63;95834.69;5016334;28;20834;-72
2021/08/10 03:48:01;;;;;;;1.40;1.30;;;;;;;11.66;98.94;95835.31;5020362;28;20216;-72
2021/08/10 03:50:33;;;;;;;1.07;0.97;;;;;;;11.67;99.11;95844.06;5021783;28;20297;-72
2021/08/10 03:53:03;;;;;;;1.70;1.27;;;;;;;11.63;99.77;95837.53;5018601;28;20231;-71
2021/08/10 03:55:33;;;;;;;1.93;1.83;;;;;;;11.64;99.68;95845.25;5025787;28;20219;-72
2021/08/10 03:58:06;;;;;;;1.30;1.20;;;;;;;11.67;99.16;95850.16;5027349;28;20226;-71
2021/08/10 04:00:38;;;;;;;1.37;1.17;;;;;;;11.68;99.58;95841.22;5026466;28;20290;-72
2021/08/10 04:03:10;;;;;;;1.53;1.43;;;;;;;11.70;99.76;95841.03;5017155;28;20645;-72
2021/08/10 04:05:43;;;;;;;2.23;2.13;;;;;;;11.74;100.00;95844.16;5021385;28;20314;-72
2021/08/10 04:08:15;;;;;;;2.13;1.87;;;;;;;11.76;100.00;95847.41;5027289;28;20608;-72
2021/08/10 04:10:45;;;;;;;2.17;2.07;;;;;;;11.78;100.00;95834.81;5016605;28;20218;-72
2021/08/10 04:13:19;;;;;;;1.50;1.40;;;;;;;11.78;99.98;95840.94;5025249;28;20746;-72
2021/08/10 04:15:50;;;;;;;1.60;1.50;;;;;;;11.76;100.00;95842.94;5013001;28;20223;-72
2021/08/10 04:18:23;;;;;;;1.97;1.87;;;;;;;11.82;100.00;95844.88;5020198;28;20735;-72
2021/08/10 04:20:53;;;;;;;2.03;1.57;;;;;;;11.81;99.97;95853.81;5017596;28;20327;-72
2021/08/10 04:23:22;;;;;;;1.80;1.70;;;;;;;11.80;99.88;95846.09;5025045;28;20259;-72
2021/08/10 04:25:50;;;;;;;2.83;1.53;;;;;;;11.77;99.99;95854.34;5027818;28;20261;-72
2021/08/10 04:28:19;;;;;;;1.70;1.60;;;;;;;11.77;100.00;95854.34;5034077;28;20219;-72
2021/08/10 04:30:48;;;;;;;2.53;1.57;;;;;;;11.74;100.00;95846.78;5009039;28;20242;-72
2021/08/10 04:33:18;;;;;;;2.50;1.53;;;;;;;11.75;100.00;95845.78;5022685;28;20223;-72
2021/08/10 04:35:49;;;;;;;1.53;1.43;;;;;;;11.78;99.99;95846.22;5029684;28;20212;-72
2021/08/10 04:38:18;;;;;;;2.97;1.60;;;;;;;11.82;99.86;95846.72;5021005;28;20223;-72
2021/08/10 04:40:46;;;;;;;1.50;1.40;;;;;;;11.88;99.96;95845.94;5023777;28;20322;-72
2021/08/10 04:43:21;;;;;;;17.17;3.20;;;;;;;11.98;99.93;95841.19;5022447;28;20219;-72
2021/08/10 04:45:51;;;;;;;2.20;1.60;;;;;;;12.06;99.95;95840.22;5020375;28;20224;-72
2021/08/10 04:48:19;;;;;;;1.70;1.57;;;;;;;12.12;99.86;95832.38;5020166;28;20226;-72
2021/08/10 04:50:49;;;;;;;1.57;1.47;;;;;;;12.22;99.79;95824.94;5029577;28;20219;-72
2021/08/10 04:53:20;;;;;;;2.70;2.10;;;;;;;12.29;99.82;95829.47;5013014;28;20211;-72
2021/08/10 04:55:49;;;;;;;2.17;2.07;;;;;;;12.39;99.69;95830.78;5016270;28;20208;-72
2021/08/10 04:58:18;;;;;;;2.33;2.20;;;;;;;12.48;99.21;95827.00;5019281;28;20708;-72
2021/08/10 05:00:48;;;;;;;1.33;1.23;;;;;;;12.51;98.90;95834.53;5019666;28;20220;-72
2021/08/10 05:03:17;;;;;;;7.20;2.73;;;;;;;12.53;98.89;95829.06;5020165;28;20207;-72
2021/08/10 05:05:48;;;;;;;2.93;2.63;;;;;;;12.61;98.50;95826.25;5011878;28;20216;-72
2021/08/10 05:08:17;;;;;;;2.30;2.20;;;;;;;12.67;98.31;95824.69;5022753;28;20671;-72
2021/08/10 05:10:46;;;;;;;3.97;1.93;;;;;;;12.77;98.28;95830.47;5019294;28;20242;-72
2021/08/10 05:13:18;;;;;;;2.23;1.97;;;;;;;12.87;97.97;95822.16;5029646;28;20290;-72
2021/08/10 05:15:47;;;;;;;3.87;1.87;;;;;;;13.00;97.71;95830.22;5019863;28;20211;-72
2021/08/10 05:18:16;;;;;;;2.47;2.37;;;;;;;13.06;97.36;95837.38;5024301;28;20226;-71
2021/08/10 05:20:45;;;;;;;2.27;2.07;;;;;;;13.10;97.30;95839.44;5026778;28;20215;-71
2021/08/10 05:23:13;;;;;;;3.43;3.23;;;;;;;13.25;97.23;95834.03;5027385;28;20265;-72
2021/08/10 05:25:42;;;;;;;3.13;2.83;;;;;;;13.34;96.99;95832.88;5024070;28;20679;-71
2021/08/10 05:28:11;;;;;;;4.00;3.00;;;;;;;13.44;96.81;95821.09;5030256;28;20945;-72
2021/08/10 05:30:39;;;;;;;2.00;1.90;;;;;;;13.56;96.24;95824.81;5025428;28;20234;-71
2021/08/10 05:33:09;;;;;;;2.30;2.20;;;;;;;13.65;95.81;95818.31;5027962;28;20689;-71
2021/08/10 05:35:38;;;;;;;4.27;3.00;;;;;;;13.71;95.66;95833.41;5035250;28;20222;-71
2021/08/10 05:38:07;;;;;;;5.57;2.77;;;;;;;13.85;95.43;95847.56;5018109;28;20228;-71
2021/08/10 05:40:43;;;;;;;2.63;2.43;;;;;;;13.99;96.17;95837.78;5030138;28;20229;-72
2021/08/10 05:43:10;;;;;;;2.57;2.37;;;;;;;14.16;95.83;95836.41;5028953;28;20223;-72
2021/08/10 05:45:38;;;;;;;2.53;2.40;;;;;;;14.32;95.20;95835.22;5029225;28;20246;-71
2021/08/10 05:48:12;;;;;;;2.10;2.00;;;;;;;14.51;94.56;95835.25;5021112;28;20224;-72
2021/08/10 05:50:41;;;;;;;2.40;2.27;;;;;;;14.64;94.29;95837.09;5042181;28;20210;-72
2021/08/10 05:53:09;;;;;;;4.43;2.23;;;;;;;14.86;93.66;95840.34;5024718;28;20285;-71
2021/08/10 05:55:39;;;;;;;3.10;2.17;;;;;;;15.02;93.10;95847.91;5025093;28;20254;-72
2021/08/10 05:58:09;;;;;;;1.80;1.70;;;;;;;15.27;92.61;95845.41;5028122;28;20610;-72
2021/08/10 06:00:37;;;;;;;3.93;2.00;;;;;;;15.35;92.04;95841.69;5035441;28;20219;-71
2021/08/10 06:03:11;;;;;;;2.07;1.97;;;;;;;15.40;91.75;95843.72;5023635;28;20242;-71
2021/08/10 06:05:40;;;;;;;2.33;2.13;;;;;;;15.39;91.78;95842.91;5030316;28;20222;-72
2021/08/10 06:08:08;;;;;;;2.23;2.13;;;;;;;15.38;91.58;95851.09;5019907;28;20243;-71
2021/08/10 06:10:40;;;;;;;7.37;2.70;;;;;;;15.44;92.02;95848.41;5027893;28;20723;-72
2021/08/10 06:13:11;;;;;;;10.00;3.63;;;;;;;15.67;91.84;95855.94;5034286;28;20222;-71
2021/08/10 06:15:42;;;;;;;2.03;1.77;;;;;;;15.87;90.83;95850.53;5023975;28;20722;-72
2021/08/10 06:18:09;;;;;;;1.93;1.83;;;;;;;15.94;90.02;95846.00;5018912;28;20774;-72
2021/08/10 06:20:38;;;;;;;2.03;1.93;;;;;;;15.86;89.39;95847.06;5029618;28;20322;-72
2021/08/10 06:23:07;;;;;;;1.80;1.70;;;;;;;15.85;89.61;95842.75;5024738;28;20219;-72
2021/08/10 06:25:40;;;;;;;1.10;1.10;;;;;;;15.97;89.42;95840.25;5024970;28;20215;-71
2021/08/10 06:28:10;;;;;;;2.17;2.07;;;;;;;16.13;89.15;95834.44;5030277;28;20281;-71
2021/08/10 06:30:40;;;;;;;1.97;1.30;;;;;;;16.31;89.24;95840.88;5023680;28;20226;-71
2021/08/10 06:33:08;;;;;;;1.77;1.67;;;;;;;16.48;88.16;95842.00;5019771;28;20771;-72
2021/08/10 06:35:36;;;;;;;2.73;1.80;;;;;;;16.65;87.69;95837.75;5018315;28;20262;-72
2021/08/10 06:38:05;;;;;;;1.83;1.73;;;;;;;16.84;86.66;95840.50;5016157;28;20600;-71
2021/08/10 06:40:38;;;;;;;2.30;1.47;;;;;;;17.01;86.33;95846.91;5025549;28;20221;-68
2021/08/10 06:43:07;;;;;;;1.40;1.30;;;;;;;17.17;86.16;95846.34;5028693;28;20602;-67
2021/08/10 06:45:40;;;;;;;2.80;2.60;;;;;;;17.32;84.99;95849.47;5027965;28;20431;-67
2021/08/10 06:48:12;;;;;;;2.20;2.10;;;;;;;17.54;84.54;95841.03;5019565;28;20219;-68
2021/08/10 06:50:40;;;;;;;1.70;1.63;;;;;;;17.76;82.94;95844.91;5026054;28;20219;-67
2021/08/10 06:53:08;;;;;;;1.93;1.83;;;;;;;17.98;82.74;95847.09;5027200;28;20632;-67
2021/08/10 06:55:48;;;;;;;3.10;1.73;;;;;;;18.16;82.34;95833.69;5017059;28;20649;-68
2021/08/10 06:58:16;;;;;;;2.37;2.17;;;;;;;18.41;81.05;95830.88;5026415;28;20301;-68
2021/08/10 07:00:46;;;;;;;3.63;2.17;;;;;;;18.69;80.52;95838.28;5023909;28;20249;-68
2021/08/10 07:03:16;;;;;;;1.97;1.87;;;;;;;18.91;78.85;95836.69;5023481;28;20224;-68
2021/08/10 07:05:45;;;;;;;2.43;1.83;;;;;;;19.10;78.92;95836.56;5028686;28;20226;-68
2021/08/10 07:08:12;;;;;;;7.07;2.43;;;;;;;19.24;77.85;95833.44;5023070;28;20581;-68
2021/08/10 07:10:42;;;;;;;1.37;1.27;;;;;;;19.38;77.28;95828.63;5024403;28;20680;-68
2021/08/10 07:13:11;;;;;;;2.00;1.60;;;;;;;19.46;77.05;95833.63;5016470;28;20457;-68
2021/08/10 07:15:39;;;;;;;3.80;2.17;;;;;;;19.51;77.39;95832.94;5023671;28;20235;-67
2021/08/10 07:18:15;;;;;;;1.73;1.63;;;;;;;19.58;77.76;95829.13;5022202;28;20230;-67
2021/08/10 07:20:43;;;;;;;2.40;1.60;;;;;;;19.72;77.13;95828.84;5032374;28;20740;-68
2021/08/10 07:23:12;;;;;;;1.93;1.83;;;;;;;19.88;76.62;95825.44;5022065;28;20756;-67
2021/08/10 07:25:46;;;;;;;1.40;1.30;;;;;;;20.11;75.60;95822.66;5027966;28;20207;-67
2021/08/10 07:28:21;;;;;;;1.90;1.80;;;;;;;20.36;73.83;95832.22;5020991;28;20219;-68
2021/08/10 07:30:51;;;;;;;1.53;1.43;;;;;;;20.60;73.29;95825.72;5020630;28;20228;-68
2021/08/10 07:33:22;;;;;;;2.70;1.60;;;;;;;20.82;73.44;95816.94;5021698;28;20289;-68
2021/08/10 07:35:57;;;;;;;1.77;1.07;;;;;;;21.03;73.01;95818.91;5035401;28;20294;-67
2021/08/10 07:38:26;;;;;;;1.57;1.47;;;;;;;21.18;70.85;95823.66;5023219;28;20217;-68
2021/08/10 07:40:54;;;;;;;1.50;1.23;;;;;;;21.18;70.53;95824.47;5023672;28;20247;-68
2021/08/10 07:43:22;;;;;;;1.90;1.53;;;;;;;21.20;69.86;95834.94;5023439;28;20239;-68
2021/08/10 07:45:54;;;;;;;1.23;1.17;;;;;;;21.12;70.64;95830.00;5028568;28;20266;-68
2021/08/10 07:48:23;;;;;;;1.23;1.20;;;;;;;21.24;71.48;95834.22;5023408;28;20220;-68
2021/08/10 07:50:54;;;;;;;1.63;1.53;;;;;;;21.15;71.87;95830.34;5027701;28;20215;-68
2021/08/10 07:53:26;;;;;;;1.77;1.67;;;;;;;21.14;70.67;95834.09;5021807;28;20238;-68
2021/08/10 07:55:54;;;;;;;1.50;1.40;;;;;;;21.03;71.22;95837.69;5026493;28;20261;-68
2021/08/10 07:58:22;;;;;;;1.50;1.40;;;;;;;21.33;70.71;95841.91;5020839;28;20227;-68
2021/08/10 08:00:50;;;;;;;2.03;1.13;;;;;;;21.69;68.15;95838.63;5020141;28;20239;-68
2021/08/10 08:03:18;;;;;;;2.47;1.30;;;;;;;21.61;69.87;95832.88;5017844;28;20251;-67
2021/08/10 08:05:48;;;;;;;1.93;1.83;;;;;;;21.95;70.14;95836.25;5017422;28;20768;-67
2021/08/10 08:08:18;;;;;;;5.40;2.07;;;;;;;22.04;67.01;95842.81;5042123;28;20383;-68
2021/08/10 08:10:46;;;;;;;1.33;1.23;;;;;;;22.06;65.84;95840.69;5021201;28;20219;-68
2021/08/10 08:13:26;;;;;;;2.53;1.40;;;;;;;22.29;64.11;95837.72;5031467;28;20298;-68
2021/08/10 08:15:56;;;;;;;2.57;1.50;;;;;;;22.09;66.31;95835.63;5021953;28;20310;-69
2021/08/10 08:18:25;;;;;;;1.73;1.63;;;;;;;22.18;65.70;95837.88;5036100;28;20224;-68
2021/08/10 08:20:54;;;;;;;3.13;1.20;;;;;;;22.07;67.00;95843.16;5017941;28;20227;-68
2021/08/10 08:23:28;;;;;;;1.73;1.63;;;;;;;22.16;63.33;95840.81;5018447;28;20226;-68
2021/08/10 08:26:00;;;;;;;1.70;1.53;;;;;;;22.41;63.51;95837.59;5025706;28;20427;-68
2021/08/10 08:28:29;;;;;;;4.20;1.20;;;;;;;22.70;64.16;95836.25;5023125;28;20223;-69
2021/08/10 08:30:57;;;;;;;1.67;1.57;;;;;;;23.05;64.38;95837.66;5019980;28;20715;-68
2021/08/10 08:33:26;;;;;;;1.30;1.03;;;;;;;23.28;63.88;95836.44;5020628;28;20232;-68
2021/08/10 08:35:56;;;;;;;3.20;1.80;;;;;;;22.74;61.76;95831.16;5023172;28;20234;-68
2021/08/10 08:38:25;;;;;;;4.10;1.73;;;;;;;22.53;63.09;95829.38;5019561;28;20250;-68
2021/08/10 08:40:53;;;;;;;4.47;1.33;;;;;;;22.45;62.54;95836.03;5011838;28;20234;-70
2021/08/10 08:43:23;;;;;;;1.20;1.20;;;;;;;22.45;64.94;95833.31;5010229;28;20261;-70
2021/08/10 08:45:54;;;;;;;2.00;1.90;;;;;;;22.26;65.17;95835.56;5002139;28;20382;-69
2021/08/10 08:48:26;;;;;;;1.30;1.20;;;;;;;22.27;62.52;95842.56;5003090;28;20231;-68
2021/08/10 08:50:57;;;;;;;2.33;1.67;;;;;;;22.82;64.20;95832.59;5008448;28;20227;-69
2021/08/10 08:53:27;;;;;;;1.53;1.40;;;;;;;23.24;59.28;95832.66;5005213;28;20224;-68
2021/08/10 08:55:55;;;;;;;2.17;2.07;;;;;;;23.58;61.46;95832.31;5014181;28;20227;-69
2021/08/10 08:58:25;;;;;;;3.10;1.50;;;;;;;23.59;60.50;95831.22;5024157;28;20566;-68
2021/08/10 09:00:53;;;;;;;1.33;1.00;;;;;;;24.10;56.29;95825.03;5020891;28;20236;-69
2021/08/10 09:03:23;;;;;;;1.20;1.20;;;;;;;24.43;58.97;95825.69;5020670;28;20852;-69
2021/08/10 09:05:52;;;;;;;1.20;1.17;;;;;;;24.63;59.68;95814.91;5010674;28;20223;-69
2021/08/10 09:08:31;;;;;;;1.60;1.50;;;;;;;24.68;56.26;95814.91;5018957;28;20298;-69
2021/08/10 09:11:04;;;;;;;1.50;1.40;;;;;;;25.00;55.48;95815.72;5012827;28;20238;-68
2021/08/10 09:13:39;;;;;;;1.67;1.58;;;;;;;25.16;51.00;95810.09;5028234;28;20259;-69
2021/08/10 09:16:10;;;;;;;1.48;1.38;;;;;;;24.42;54.87;95812.47;5026636;28;20237;-68
2021/08/10 09:18:39;;;;;;;2.60;2.03;;;;;;;24.95;53.44;95811.13;5036021;28;20246;-69
2021/08/10 09:21:18;;;;;;;3.10;1.50;;;;;;;25.25;53.42;95807.66;5008786;28;20604;-69
2021/08/10 09:23:56;;;;;;;1.70;1.35;;;;;;;25.51;53.52;95808.38;5012742;28;20220;-69
2021/08/10 09:26:38;;;;;;;1.30;1.20;;;;;;;26.01;52.09;95812.03;5031451;28;20252;-69
2021/08/10 09:29:10;;;;;;;1.58;1.48;;;;;;;26.36;51.86;95809.13;5016511;28;20228;-69
2021/08/10 09:31:41;;;;;;;1.77;1.33;;;;;;;26.83;50.23;95798.81;5019671;28;20302;-68
2021/08/10 09:34:19;;;;;;;1.58;1.00;;;;;;;26.91;49.08;95798.22;5017122;28;20220;-69
2021/08/10 09:36:49;;;;;;;1.67;1.10;;;;;;;27.14;48.97;95796.66;5024156;28;20648;-69
2021/08/10 09:39:29;;;;;;;1.65;1.35;;;;;;;26.75;49.29;95799.41;5015916;28;20227;-69
2021/08/10 09:42:01;;;;;;;1.67;1.13;;;;;;;26.88;48.83;95799.59;5018320;28;20234;-69
2021/08/10 09:44:29;;;;;;;1.90;0.95;;;;;;;26.89;48.82;95800.41;5024736;28;20278;-69
2021/08/10 09:46:57;;;;;;;1.85;1.75;;;;;;;25.80;51.03;95790.47;5022857;28;20302;-68
2021/08/10 09:49:43;;;;;;;4.50;1.73;;;;;;;26.22;50.82;95796.50;5031297;28;20249;-69
2021/08/10 09:52:23;;;;;;;1.13;1.13;;;;;;;26.37;52.56;95799.09;5015426;28;20227;-69
2021/08/10 09:55:10;;;;;;;1.48;1.38;;;;;;;26.58;50.48;95795.19;5030165;28;20300;-69
2021/08/10 09:57:40;;;;;;;2.35;2.15;;;;;;;26.81;50.49;95790.97;5022111;28;20302;-69
2021/08/10 10:00:10;;;;;;;2.30;1.52;;;;;;;26.87;49.11;95787.13;5023434;28;20227;-69
2021/08/10 10:02:41;;;;;;;1.77;1.67;;;;;;;25.79;50.71;95788.88;5017121;28;20227;-68
2021/08/10 10:05:10;;;;;;;1.65;1.55;;;;;;;26.39;50.00;95785.31;5015933;28;20223;-68
2021/08/10 10:07:39;;;;;;;1.98;1.77;;;;;;;25.95;52.02;95786.88;5028341;28;20264;-69
2021/08/10 10:10:10;;;;;;;5.13;2.10;;;;;;;25.41;54.68;95781.38;5021033;28;20219;-69
2021/08/10 10:12:46;;;;;;;2.90;2.70;;;;;;;25.18;53.31;95789.00;5038447;28;20234;-68
2021/08/10 10:15:15;;;;;;;1.65;1.55;;;;;;;25.68;50.99;95781.03;5033522;28;20777;-69
2021/08/10 10:17:44;;;;;;;2.95;2.42;;;;;;;25.48;55.12;95790.00;5013788;28;20277;-69
2021/08/10 10:20:14;;;;;;;2.65;2.50;;;;;;;25.30;53.99;95780.59;5018049;28;20230;-69
2021/08/10 10:22:45;;;;;;;1.75;1.50;;;;;;;24.73;54.49;95789.00;5020832;28;20220;-69
2021/08/10 10:25:14;;;;;;;1.80;1.70;;;;;;;25.27;53.67;95783.06;5022486;28;20277;-68
2021/08/10 10:27:42;;;;;;;1.90;1.10;;;;;;;25.91;51.77;95779.63;5024744;28;20219;-69
2021/08/10 10:30:11;;;;;;;4.15;1.20;;;;;;;25.44;54.51;95770.84;5024650;28;20648;-69
2021/08/10 10:32:40;;;;;;;2.67;1.67;;;;;;;24.42;54.24;95775.50;5029541;28;20297;-68
2021/08/10 10:35:10;;;;;;;2.50;1.65;;;;;;;24.40;55.84;95778.47;5031247;28;20268;-68
2021/08/10 10:37:38;;;;;;;4.93;1.63;;;;;;;24.40;55.08;95774.94;5016755;28;20457;-68
2021/08/10 10:40:08;;;;;;;2.85;1.65;;;;;;;24.75;57.17;95784.97;5022020;28;20227;-69
2021/08/10 10:42:38;;;;;;;1.42;1.33;;;;;;;24.98;56.00;95780.91;5030707;28;20271;-68
2021/08/10 10:45:07;;;;;;;2.20;1.90;;;;;;;25.21;55.06;95766.84;5019491;28;20315;-68
2021/08/10 10:47:38;;;;;;;5.50;2.53;;;;;;;24.87;54.33;95776.56;5023508;28;20215;-68
2021/08/10 10:50:16;;;;;;;2.35;1.92;;;;;;;24.47;56.77;95777.41;5021571;28;20220;-68
2021/08/10 10:52:59;;;;;;;1.77;1.70;;;;;;;24.09;55.93;95782.16;5023139;28;20276;-68
2021/08/10 10:55:40;;;;;;;3.17;1.88;;;;;;;24.42;56.10;95775.50;5021588;28;20294;-69
2021/08/10 10:58:30;;;;;;;3.53;1.63;;;;;;;24.78;56.84;95767.41;5024124;28;20315;-69
2021/08/10 11:01:11;;;;;;;2.42;2.22;;;;;;;24.94;54.29;95767.13;5017434;28;20293;-68
2021/08/10 11:03:41;;;;;;;1.73;1.63;;;;;;;25.25;53.33;95761.72;5024312;28;20227;-68
2021/08/10 11:06:31;;;;;;;1.80;1.70;;;;;;;25.32;54.33;95764.13;5036150;28;20314;-68
2021/08/10 11:09:00;;;;;;;3.15;2.95;;;;;;;24.88;55.94;95762.03;5019172;28;20238;-69
2021/08/10 11:11:48;;;;;;;1.92;1.20;;;;;;;24.87;54.43;95760.38;5023624;28;20627;-69
2021/08/10 11:14:55;;;;;;;4.30;2.08;;;;;;;24.61;55.88;95754.22;5019166;28;20227;-68
2021/08/10 11:17:24;;;;;;;3.00;1.80;;;;;;;24.32;57.35;95764.69;5026243;28;20223;-68
2021/08/10 11:19:53;;;;;;;2.22;2.13;;;;;;;24.10;57.16;95756.81;5028008;28;20219;-68
2021/08/10 11:22:23;;;;;;;1.80;1.70;;;;;;;23.93;57.06;95767.81;5020407;28;20236;-69
2021/08/10 11:24:53;;;;;;;1.48;1.38;;;;;;;24.05;57.72;95754.13;5024320;28;20596;-68
2021/08/10 11:27:37;;;;;;;3.97;2.00;;;;;;;23.91;55.83;95764.59;5023533;28;20215;-68
2021/08/10 11:30:09;;;;;;;1.38;1.27;;;;;;;24.02;57.00;95755.44;5018920;28;20224;-68
2021/08/10 11:32:46;;;;;;;1.38;1.27;;;;;;;24.11;58.47;95753.03;5024070;28;20227;-68
2021/08/10 11:35:38;;;;;;;2.15;1.83;;;;;;;24.28;57.80;95747.41;5024751;28;20302;-69
2021/08/10 11:38:16;;;;;;;1.52;1.42;;;;;;;24.46;57.55;95749.59;5019534;28;20649;-67
2021/08/10 11:40:52;;;;;;;1.58;1.48;;;;;;;24.47;56.36;95748.53;5024017;28;20227;-69
2021/08/10 11:43:22;;;;;;;3.35;1.40;;;;;;;24.79;55.61;95747.47;5021696;28;20235;-69
2021/08/10 11:45:51;;;;;;;1.15;1.02;;;;;;;25.08;55.08;95756.63;5022797;28;20884;-68
2021/08/10 11:48:22;;;;;;;2.05;1.95;;;;;;;25.39;54.64;95745.72;5022052;28;20243;-68
2021/08/10 11:50:51;;;;;;;1.77;1.67;;;;;;;25.39;54.50;95743.03;5023601;28;20315;-68
2021/08/10 11:53:32;;;;;;;2.15;1.40;;;;;;;25.79;55.29;95745.63;5025052;28;20705;-68
2021/08/10 11:56:00;;;;;;;3.15;1.73;;;;;;;26.09;54.75;95743.81;5013272;28;20487;-68